KCPU

Calaveras Co-Maury Rasmussen Field Airport

San Andreas, California, USA
METAR KCPU 201550Z AUTO 00000KT 10SM CLR 24/01 A2990 RMK AO2 T02400010
Observed Flight Rules
Aug-20 @ 15:50 UTC (36 minutes ago) Visual Flight Rules
Visibility Clouds
10 miles
  • Clear skies
Temperatures Readings
Current 24°C / 75°F
Dewpoint 1°C / 34°F
Humidity 22%
Altimeter 29.9" Hg
Pressure 1013 hPa
Elevation 404
METAR KCPU 201550Z AUTO 00000KT 10SM CLR 24/01 A2990 RMK AO2 T02400010
Observed Flight Rules
Aug-20 @ 15:50 UTC
(36 minutes ago)
VFR
Clouds
  • Clear skies
Temperature Dewpoint
24°C / 75°F 1°C / 34°F
Humidity Altimeter Pressure
22% 29.9" Hg 1013 hPa